createdAt,value
2016-11-21T00:00:52.581Z,980.5
2016-11-21T00:01:52.578Z,980.46
2016-11-21T00:02:52.571Z,980.45
2016-11-21T00:03:52.565Z,980.43
2016-11-21T00:04:52.560Z,980.35
2016-11-21T00:05:52.556Z,980.36
2016-11-21T00:06:52.751Z,980.33
2016-11-21T00:07:52.545Z,980.3
2016-11-21T00:08:52.540Z,980.32
2016-11-21T00:09:52.536Z,980.33
2016-11-21T00:10:52.531Z,980.36
2016-11-21T00:11:52.526Z,980.29
2016-11-21T00:12:52.521Z,980.26
2016-11-21T00:13:52.520Z,980.27
2016-11-21T00:14:52.523Z,980.29
2016-11-21T00:15:52.505Z,980.28
2016-11-21T00:16:52.500Z,980.24
2016-11-21T00:17:52.498Z,980.26
2016-11-21T00:18:52.491Z,980.26
2016-11-21T00:19:52.485Z,980.25
2016-11-21T00:20:52.487Z,980.26
2016-11-21T00:21:52.526Z,980.21
2016-11-21T00:22:52.477Z,980.2
2016-11-21T00:23:52.467Z,980.19
2016-11-21T00:24:52.468Z,980.16
2016-11-21T00:25:52.469Z,980.13
2016-11-21T00:26:52.450Z,980.19
2016-11-21T00:27:52.446Z,980.21
2016-11-21T00:28:52.441Z,980.22
2016-11-21T00:29:52.434Z,980.25
2016-11-21T00:30:52.431Z,980.27
2016-11-21T00:31:52.425Z,980.32
2016-11-21T00:32:52.422Z,980.33
2016-11-21T00:33:52.424Z,980.3
2016-11-21T00:34:52.409Z,980.33
2016-11-21T00:35:52.404Z,980.31
2016-11-21T00:36:52.598Z,980.37
2016-11-21T00:37:52.393Z,980.46
2016-11-21T00:38:52.387Z,980.52
2016-11-21T00:39:52.383Z,980.56
2016-11-21T00:40:52.377Z,980.58
2016-11-21T00:41:52.372Z,980.55
2016-11-21T00:42:52.367Z,980.57
2016-11-21T00:43:52.362Z,980.57
2016-11-21T00:44:52.356Z,980.59
2016-11-21T00:45:52.352Z,980.56
2016-11-21T00:46:52.351Z,980.51
2016-11-21T00:47:52.340Z,980.52
2016-11-21T00:48:52.334Z,980.54
2016-11-21T00:49:52.329Z,980.49
2016-11-21T00:50:52.324Z,980.54
2016-11-21T00:51:52.578Z,980.57
2016-11-21T00:52:52.313Z,980.57
2016-11-21T00:53:52.320Z,980.5
2016-11-21T00:54:52.312Z,980.47
2016-11-21T00:55:52.304Z,980.49
2016-11-21T00:56:52.301Z,980.53
2016-11-21T00:57:52.292Z,980.51
2016-11-21T00:58:52.287Z,980.53
2016-11-21T00:59:52.286Z,980.49
2016-11-21T01:00:52.271Z,980.51
2016-11-21T01:01:52.268Z,980.47
2016-11-21T01:02:52.262Z,980.5
2016-11-21T01:03:52.253Z,980.51
2016-11-21T01:04:52.247Z,980.54
2016-11-21T01:05:52.242Z,980.54
2016-11-21T01:06:52.490Z,980.59
2016-11-21T01:07:52.230Z,980.56
2016-11-21T01:08:52.225Z,980.52
2016-11-21T01:09:52.218Z,980.54
2016-11-21T01:10:52.213Z,980.49
2016-11-21T01:11:52.210Z,980.56
2016-11-21T01:12:52.209Z,980.53
2016-11-21T01:13:52.196Z,980.52
2016-11-21T01:14:52.190Z,980.52
2016-11-21T01:15:52.185Z,980.49
2016-11-21T01:16:52.180Z,980.56
2016-11-21T01:17:52.173Z,980.55
2016-11-21T01:18:52.168Z,980.55
2016-11-21T01:19:52.162Z,980.54
2016-11-21T01:20:52.156Z,980.52
2016-11-21T01:21:52.150Z,980.51
2016-11-21T01:22:52.144Z,980.52
2016-11-21T01:23:52.139Z,980.56
2016-11-21T01:24:52.132Z,980.53
2016-11-21T01:25:52.126Z,980.55
2016-11-21T01:26:52.121Z,980.52
2016-11-21T01:27:52.115Z,980.57
2016-11-21T01:28:52.108Z,980.52
2016-11-21T01:29:52.103Z,980.55
2016-11-21T01:30:52.098Z,980.56
2016-11-21T01:31:52.090Z,980.65
2016-11-21T01:32:52.084Z,980.59
2016-11-21T01:33:52.079Z,980.6
2016-11-21T01:34:52.073Z,980.54
2016-11-21T01:35:52.066Z,980.57
2016-11-21T01:36:52.061Z,980.52
2016-11-21T01:37:52.056Z,980.58
2016-11-21T01:38:52.048Z,980.56
2016-11-21T01:39:52.045Z,980.58
2016-11-21T01:40:52.036Z,980.57
2016-11-21T01:41:52.033Z,980.61
2016-11-21T01:42:52.024Z,980.54
2016-11-21T01:43:52.018Z,980.55
2016-11-21T01:44:52.012Z,980.56
2016-11-21T01:45:52.008Z,980.6
2016-11-21T01:46:52.000Z,980.62
2016-11-21T01:47:51.993Z,980.61
2016-11-21T01:48:51.989Z,980.59
2016-11-21T01:49:51.981Z,980.54
2016-11-21T01:50:51.977Z,980.54
2016-11-21T01:51:51.970Z,980.5
2016-11-21T01:52:51.963Z,980.58
2016-11-21T01:53:51.958Z,980.55
2016-11-21T01:54:51.952Z,980.59
2016-11-21T01:55:51.945Z,980.59
2016-11-21T01:56:51.940Z,980.61
2016-11-21T01:57:51.933Z,980.54
2016-11-21T01:58:51.927Z,980.5
2016-11-21T01:59:51.921Z,980.52
2016-11-21T02:00:51.915Z,980.47
2016-11-21T02:01:51.909Z,980.48
2016-11-21T02:02:51.904Z,980.56
2016-11-21T02:03:51.897Z,980.55
2016-11-21T02:04:51.890Z,980.45
2016-11-21T02:05:51.884Z,980.34
2016-11-21T02:06:51.879Z,980.31
2016-11-21T02:07:51.873Z,980.28
2016-11-21T02:08:51.867Z,980.27
2016-11-21T02:09:51.860Z,980.29
2016-11-21T02:10:51.854Z,980.28
2016-11-21T02:11:51.847Z,980.27
2016-11-21T02:12:51.844Z,980.22
2016-11-21T02:13:51.836Z,980.2
2016-11-21T02:14:51.830Z,980.14
2016-11-21T02:15:51.823Z,980.13
2016-11-21T02:16:51.817Z,980.13
2016-11-21T02:17:51.811Z,980.14
2016-11-21T02:18:51.808Z,980.11
2016-11-21T02:19:51.810Z,980.12
2016-11-21T02:20:51.794Z,980.12
2016-11-21T02:21:51.788Z,980.16
2016-11-21T02:22:51.781Z,980.14
2016-11-21T02:23:51.777Z,980.09
2016-11-21T02:24:51.769Z,980.08
2016-11-21T02:25:51.762Z,980.07
2016-11-21T02:26:51.759Z,980.07
2016-11-21T02:27:51.753Z,980.06
2016-11-21T02:28:51.743Z,979.96
2016-11-21T02:29:51.737Z,979.94
2016-11-21T02:30:51.730Z,979.97
2016-11-21T02:31:51.723Z,979.97
2016-11-21T02:32:51.719Z,979.87
2016-11-21T02:33:51.709Z,979.79
2016-11-21T02:34:51.705Z,979.8
2016-11-21T02:35:51.697Z,979.88
2016-11-21T02:36:51.700Z,979.92
2016-11-21T02:37:51.712Z,979.9
2016-11-21T02:38:51.696Z,979.94
2016-11-21T02:39:51.671Z,980.04
2016-11-21T02:40:51.665Z,980.03
2016-11-21T02:41:51.666Z,980.04
2016-11-21T02:42:51.653Z,980.08
2016-11-21T02:43:51.649Z,980.19
2016-11-21T02:44:51.646Z,980.14
2016-11-21T02:45:51.639Z,980.05
2016-11-21T02:46:51.638Z,980.02
2016-11-21T02:47:51.620Z,980.05
2016-11-21T02:48:51.614Z,980.06
2016-11-21T02:49:51.607Z,980.04
2016-11-21T02:50:51.601Z,980.05
2016-11-21T02:51:51.595Z,980.1
2016-11-21T02:52:51.689Z,980.14
2016-11-21T02:53:51.587Z,980.07
2016-11-21T02:54:51.577Z,980.04
2016-11-21T02:55:51.570Z,980.09
2016-11-21T02:56:51.565Z,980.08
2016-11-21T02:57:51.558Z,980.08
2016-11-21T02:58:51.553Z,980.12
2016-11-21T02:59:51.544Z,980.08
2016-11-21T03:00:51.539Z,980.12
2016-11-21T03:01:51.532Z,980.14
2016-11-21T03:02:51.527Z,980.14
2016-11-21T03:03:51.519Z,980.13
2016-11-21T03:04:51.514Z,980.13
2016-11-21T03:05:51.507Z,980.12
2016-11-21T03:06:51.500Z,980.14
2016-11-21T03:07:51.894Z,980.15
2016-11-21T03:08:51.492Z,980.13
2016-11-21T03:09:51.482Z,980.1
2016-11-21T03:10:51.476Z,980.04
2016-11-21T03:11:51.483Z,980.03
2016-11-21T03:12:51.473Z,980
2016-11-21T03:13:51.462Z,980.06
2016-11-21T03:14:51.472Z,980.08
2016-11-21T03:15:51.444Z,980.09
2016-11-21T03:16:51.438Z,980.07
2016-11-21T03:17:51.431Z,980.06
2016-11-21T03:18:51.426Z,980.01
2016-11-21T03:19:51.422Z,980.04
2016-11-21T03:20:51.418Z,980.03
2016-11-21T03:21:51.408Z,980
2016-11-21T03:22:51.700Z,979.99
2016-11-21T03:23:51.405Z,979.97
2016-11-21T03:24:51.386Z,979.94
2016-11-21T03:25:51.382Z,979.98
2016-11-21T03:26:51.376Z,979.99
2016-11-21T03:27:51.369Z,979.93
2016-11-21T03:28:51.361Z,979.94
2016-11-21T03:29:51.355Z,979.94
2016-11-21T03:30:51.349Z,979.95
2016-11-21T03:31:51.343Z,979.89
2016-11-21T03:32:51.335Z,979.93
2016-11-21T03:33:51.329Z,979.93
2016-11-21T03:34:51.325Z,979.93
2016-11-21T03:35:51.325Z,979.89
2016-11-21T03:36:51.311Z,979.91
2016-11-21T03:37:51.457Z,979.91
2016-11-21T03:38:51.298Z,979.86
2016-11-21T03:39:51.290Z,979.92
2016-11-21T03:40:51.285Z,979.9
2016-11-21T03:41:51.279Z,979.89
2016-11-21T03:42:51.284Z,979.86
2016-11-21T03:43:51.271Z,979.91
2016-11-21T03:44:51.259Z,979.87
2016-11-21T03:45:51.253Z,979.9
2016-11-21T03:46:51.246Z,979.94
2016-11-21T03:47:51.243Z,979.99
2016-11-21T03:48:51.233Z,979.98
2016-11-21T03:49:51.227Z,979.92
2016-11-21T03:50:51.220Z,979.86
2016-11-21T03:51:51.213Z,979.9
2016-11-21T03:52:51.207Z,979.86
2016-11-21T03:53:51.201Z,979.85
2016-11-21T03:54:51.194Z,979.88
2016-11-21T03:55:51.188Z,979.85
2016-11-21T03:56:51.181Z,979.81
2016-11-21T03:57:51.175Z,979.82
2016-11-21T03:58:51.169Z,979.74
2016-11-21T03:59:51.167Z,979.75
2016-11-21T04:00:51.156Z,979.68
2016-11-21T04:01:51.148Z,979.71
2016-11-21T04:02:51.142Z,979.7
2016-11-21T04:03:51.136Z,979.65
2016-11-21T04:04:51.129Z,979.61
2016-11-21T04:05:51.122Z,979.64
2016-11-21T04:06:51.117Z,979.63
2016-11-21T04:07:51.115Z,979.62
2016-11-21T04:08:51.102Z,979.67
2016-11-21T04:09:51.097Z,979.69
2016-11-21T04:10:51.097Z,979.69
2016-11-21T04:11:51.096Z,979.67
2016-11-21T04:12:51.077Z,979.64
2016-11-21T04:13:51.076Z,979.62
2016-11-21T04:14:51.067Z,979.61
2016-11-21T04:15:51.064Z,979.62
2016-11-21T04:16:51.059Z,979.58
2016-11-21T04:17:51.045Z,979.61
2016-11-21T04:18:51.037Z,979.62
2016-11-21T04:19:51.051Z,979.55
2016-11-21T04:20:51.029Z,979.52
2016-11-21T04:21:51.022Z,979.49
2016-11-21T04:22:51.017Z,979.49
2016-11-21T04:23:51.025Z,979.55
2016-11-21T04:24:51.010Z,979.55
2016-11-21T04:25:51.000Z,979.46
2016-11-21T04:26:50.996Z,979.43
2016-11-21T04:27:51.001Z,979.4
2016-11-21T04:28:50.987Z,979.32
2016-11-21T04:29:50.992Z,979.3
2016-11-21T04:30:50.965Z,979.27
2016-11-21T04:31:50.960Z,979.25
2016-11-21T04:32:50.965Z,979.25
2016-11-21T04:33:50.946Z,979.3
2016-11-21T04:34:50.946Z,979.28
2016-11-21T04:35:50.940Z,979.28
2016-11-21T04:36:50.938Z,979.26
2016-11-21T04:37:50.935Z,979.3
2016-11-21T04:38:50.926Z,979.25
2016-11-21T04:39:50.908Z,979.25
2016-11-21T04:40:50.903Z,979.21
2016-11-21T04:41:50.899Z,979.2
2016-11-21T04:42:50.906Z,979.26
2016-11-21T04:43:50.894Z,979.26
2016-11-21T04:44:50.881Z,979.29
2016-11-21T04:45:50.887Z,979.32
2016-11-21T04:46:50.856Z,979.34
2016-11-21T04:47:50.862Z,979.32
2016-11-21T04:48:50.843Z,979.3
2016-11-21T04:49:50.840Z,979.29
2016-11-21T04:50:50.853Z,979.3
2016-11-21T04:51:50.855Z,979.33
2016-11-21T04:52:50.842Z,979.3
2016-11-21T04:53:50.819Z,979.28
2016-11-21T04:54:50.807Z,979.28
2016-11-21T04:55:50.812Z,979.27
2016-11-21T04:56:50.795Z,979.26
2016-11-21T04:57:50.792Z,979.26
2016-11-21T04:58:50.789Z,979.24
2016-11-21T04:59:50.768Z,979.28
2016-11-21T05:00:50.764Z,979.26
2016-11-21T05:01:50.762Z,979.23
2016-11-21T05:02:50.751Z,979.21
2016-11-21T05:03:50.746Z,979.3
2016-11-21T05:04:50.734Z,979.29
2016-11-21T05:05:50.729Z,979.28
2016-11-21T05:06:50.721Z,979.21
2016-11-21T05:07:50.721Z,979.18
2016-11-21T05:08:51.015Z,979.19
2016-11-21T05:09:50.702Z,979.18
2016-11-21T05:10:50.694Z,979.19
2016-11-21T05:11:50.689Z,979.22
2016-11-21T05:12:50.683Z,979.19
2016-11-21T05:13:50.675Z,979.24
2016-11-21T05:14:50.672Z,979.2
2016-11-21T05:15:50.672Z,979.19
2016-11-21T05:16:50.655Z,979.24
2016-11-21T05:17:50.649Z,979.28
2016-11-21T05:18:50.642Z,979.24
2016-11-21T05:19:50.635Z,979.21
2016-11-21T05:20:50.629Z,979.18
2016-11-21T05:21:50.622Z,979.21
2016-11-21T05:22:50.617Z,979.2
2016-11-21T05:23:50.917Z,979.14
2016-11-21T05:24:50.604Z,979.13
2016-11-21T05:25:50.596Z,979.15
2016-11-21T05:26:50.590Z,979.12
2016-11-21T05:27:50.584Z,979.15
2016-11-21T05:28:50.578Z,979.11
2016-11-21T05:29:50.572Z,979.11
2016-11-21T05:30:50.564Z,979.13
2016-11-21T05:31:50.561Z,979.07
2016-11-21T05:32:50.552Z,979.05
2016-11-21T05:33:50.545Z,979.04
2016-11-21T05:34:50.539Z,979.02
2016-11-21T05:35:50.532Z,979
2016-11-21T05:36:50.529Z,979.03
2016-11-21T05:37:50.519Z,979.03
2016-11-21T05:38:50.664Z,978.99
2016-11-21T05:39:50.507Z,978.98
2016-11-21T05:40:50.500Z,979
2016-11-21T05:41:50.494Z,978.92
2016-11-21T05:42:50.488Z,978.92
2016-11-21T05:43:50.489Z,978.92
2016-11-21T05:44:50.481Z,978.97
2016-11-21T05:45:50.470Z,979.03
2016-11-21T05:46:50.464Z,979
2016-11-21T05:47:50.458Z,978.96
2016-11-21T05:48:50.451Z,978.88
2016-11-21T05:49:50.445Z,978.92
2016-11-21T05:50:50.447Z,978.98
2016-11-21T05:51:50.434Z,978.99
2016-11-21T05:52:50.427Z,978.92
2016-11-21T05:53:50.521Z,978.9
2016-11-21T05:54:50.414Z,978.86
2016-11-21T05:55:50.409Z,978.79
2016-11-21T05:56:50.403Z,978.78
2016-11-21T05:57:50.400Z,978.75
2016-11-21T05:58:50.389Z,978.73
2016-11-21T05:59:50.384Z,978.73
2016-11-21T06:00:50.378Z,978.7
2016-11-21T06:01:50.372Z,978.69
2016-11-21T06:02:50.366Z,978.71
2016-11-21T06:03:50.361Z,978.73
2016-11-21T06:04:50.355Z,978.69
2016-11-21T06:05:50.348Z,978.67
2016-11-21T06:06:50.343Z,978.64
2016-11-21T06:07:50.338Z,978.62
2016-11-21T06:08:50.331Z,978.57
2016-11-21T06:09:50.325Z,978.55
2016-11-21T06:10:50.318Z,978.46
2016-11-21T06:11:50.314Z,978.45
2016-11-21T06:12:50.307Z,978.47
2016-11-21T06:13:50.301Z,978.52
2016-11-21T06:14:50.295Z,978.59
2016-11-21T06:15:50.292Z,978.65
2016-11-21T06:16:50.283Z,978.7
2016-11-21T06:17:50.278Z,978.69
2016-11-21T06:18:50.272Z,978.8
2016-11-21T06:19:50.267Z,978.89
2016-11-21T06:20:50.259Z,978.94
2016-11-21T06:21:50.255Z,978.94
2016-11-21T06:22:50.248Z,978.88
2016-11-21T06:23:50.242Z,978.86
2016-11-21T06:24:50.235Z,978.84
2016-11-21T06:25:50.230Z,978.77
2016-11-21T06:26:50.226Z,978.71
2016-11-21T06:27:50.224Z,978.75
2016-11-21T06:28:50.212Z,978.74
2016-11-21T06:29:50.207Z,978.77
2016-11-21T06:30:50.199Z,978.82
2016-11-21T06:31:50.192Z,978.86
2016-11-21T06:32:50.187Z,978.9
2016-11-21T06:33:50.182Z,978.91
2016-11-21T06:34:50.175Z,978.87
2016-11-21T06:35:50.169Z,978.89
2016-11-21T06:36:50.173Z,978.89
2016-11-21T06:37:50.157Z,978.86
2016-11-21T06:38:50.149Z,978.83
2016-11-21T06:39:50.145Z,978.84
2016-11-21T06:40:50.139Z,978.74
2016-11-21T06:41:50.136Z,978.71
2016-11-21T06:42:50.130Z,978.61
2016-11-21T06:43:50.135Z,978.61
2016-11-21T06:44:50.128Z,978.54
2016-11-21T06:45:50.109Z,978.56
2016-11-21T06:46:50.103Z,978.57
2016-11-21T06:47:50.097Z,978.64
2016-11-21T06:48:50.092Z,978.7
2016-11-21T06:49:50.086Z,978.75
2016-11-21T06:50:50.080Z,978.74
2016-11-21T06:51:50.078Z,978.75
2016-11-21T06:52:50.078Z,978.66
2016-11-21T06:53:50.066Z,978.67
2016-11-21T06:54:50.066Z,978.67
2016-11-21T06:55:50.052Z,978.61
2016-11-21T06:56:50.045Z,978.59
2016-11-21T06:57:50.040Z,978.57
2016-11-21T06:58:50.035Z,978.66
2016-11-21T06:59:50.029Z,978.63
2016-11-21T07:00:50.023Z,978.62
2016-11-21T07:01:50.019Z,978.6
2016-11-21T07:02:50.012Z,978.57
2016-11-21T07:03:50.013Z,978.56
2016-11-21T07:04:50.002Z,978.54
2016-11-21T07:05:49.996Z,978.52
2016-11-21T07:06:49.991Z,978.49
2016-11-21T07:07:49.984Z,978.48
2016-11-21T07:08:49.979Z,978.52
2016-11-21T07:09:49.977Z,978.56
2016-11-21T07:10:49.973Z,978.58
2016-11-21T07:11:49.963Z,978.54
2016-11-21T07:12:49.957Z,978.54
2016-11-21T07:13:49.952Z,978.52
2016-11-21T07:14:49.947Z,978.57
2016-11-21T07:15:49.941Z,978.57
2016-11-21T07:16:49.941Z,978.61
2016-11-21T07:17:49.939Z,978.6
2016-11-21T07:18:49.926Z,978.58
2016-11-21T07:19:49.922Z,978.58
2016-11-21T07:20:49.919Z,978.53
2016-11-21T07:21:49.910Z,978.51
2016-11-21T07:22:49.908Z,978.47
2016-11-21T07:23:49.898Z,978.47
2016-11-21T07:24:49.893Z,978.42
2016-11-21T07:25:49.888Z,978.42
2016-11-21T07:26:49.885Z,978.38
2016-11-21T07:27:49.888Z,978.41
2016-11-21T07:28:49.873Z,978.43
2016-11-21T07:29:49.917Z,978.38
2016-11-21T07:30:49.862Z,978.37
2016-11-21T07:31:49.858Z,978.4
2016-11-21T07:32:49.853Z,978.4
2016-11-21T07:33:49.847Z,978.38
2016-11-21T07:34:49.842Z,978.39
2016-11-21T07:35:49.837Z,978.38
2016-11-21T07:36:49.833Z,978.36
2016-11-21T07:37:49.829Z,978.31
2016-11-21T07:38:49.824Z,978.31
2016-11-21T07:39:49.819Z,978.36
2016-11-21T07:40:49.814Z,978.36
2016-11-21T07:41:49.809Z,978.39
2016-11-21T07:42:49.807Z,978.39
2016-11-21T07:43:49.808Z,978.41
2016-11-21T07:44:49.795Z,978.45
2016-11-21T07:45:49.792Z,978.48
2016-11-21T07:46:49.786Z,978.53
2016-11-21T07:47:49.782Z,978.53
2016-11-21T07:48:49.780Z,978.57
2016-11-21T07:49:49.773Z,978.53
2016-11-21T07:50:49.768Z,978.54
2016-11-21T07:51:49.763Z,978.51
2016-11-21T07:52:49.758Z,978.54
2016-11-21T07:53:49.754Z,978.56
2016-11-21T07:54:49.849Z,978.57
2016-11-21T07:55:49.744Z,978.6
2016-11-21T07:56:49.741Z,978.63
2016-11-21T07:57:49.741Z,978.6
2016-11-21T07:58:49.738Z,978.61
2016-11-21T07:59:49.726Z,978.64
2016-11-21T08:00:49.734Z,978.62
2016-11-21T08:01:49.717Z,978.65
2016-11-21T08:02:49.713Z,978.68
2016-11-21T08:03:49.708Z,978.65
2016-11-21T08:04:49.704Z,978.61
2016-11-21T08:05:49.700Z,978.56
2016-11-21T08:06:49.695Z,978.48
2016-11-21T08:07:49.691Z,978.56
2016-11-21T08:08:49.687Z,978.54
2016-11-21T08:09:50.032Z,978.54
2016-11-21T08:10:49.687Z,978.55
2016-11-21T08:11:49.675Z,978.57
2016-11-21T08:12:49.670Z,978.52
2016-11-21T08:13:49.667Z,978.5
2016-11-21T08:14:49.662Z,978.52
2016-11-21T08:15:49.658Z,978.45
2016-11-21T08:16:49.655Z,978.5
2016-11-21T08:17:49.650Z,978.52
2016-11-21T08:18:49.646Z,978.53
2016-11-21T08:19:49.643Z,978.57
2016-11-21T08:20:49.640Z,978.6
2016-11-21T08:21:49.634Z,978.57
2016-11-21T08:22:49.631Z,978.6
2016-11-21T08:23:49.628Z,978.55
2016-11-21T08:24:49.724Z,978.48
2016-11-21T08:25:49.620Z,978.47
2016-11-21T08:26:49.617Z,978.54
2016-11-21T08:27:49.613Z,978.55
2016-11-21T08:28:49.610Z,978.53
2016-11-21T08:29:49.606Z,978.5
2016-11-21T08:30:49.603Z,978.49
2016-11-21T08:31:49.998Z,978.51
2016-11-21T08:32:49.596Z,978.49
2016-11-21T08:33:49.592Z,978.48
2016-11-21T08:34:49.590Z,978.47
2016-11-21T08:35:49.585Z,978.41
2016-11-21T08:36:49.582Z,978.46
2016-11-21T08:37:49.579Z,978.49
2016-11-21T08:38:49.576Z,978.45
2016-11-21T08:39:49.823Z,978.46
2016-11-21T08:40:49.569Z,978.47
2016-11-21T08:41:49.568Z,978.45
2016-11-21T08:42:49.566Z,978.5
2016-11-21T08:43:49.559Z,978.46
2016-11-21T08:44:49.559Z,978.44
2016-11-21T08:45:49.554Z,978.42
2016-11-21T08:46:49.550Z,978.44
2016-11-21T08:47:49.552Z,978.34
2016-11-21T08:48:49.545Z,978.33
2016-11-21T08:49:49.542Z,978.31
2016-11-21T08:50:49.539Z,978.22
2016-11-21T08:51:49.539Z,978.22
2016-11-21T08:52:49.532Z,978.16
2016-11-21T08:53:49.529Z,978.18
2016-11-21T08:54:49.676Z,978.17
2016-11-21T08:55:49.523Z,978.19
2016-11-21T08:56:49.521Z,978.14
2016-11-21T08:57:49.521Z,978.15
2016-11-21T08:58:49.520Z,978.18
2016-11-21T08:59:49.518Z,978.2
2016-11-21T09:00:49.510Z,978.21
2016-11-21T09:01:49.511Z,978.22
2016-11-21T09:02:49.504Z,978.22
2016-11-21T09:03:49.500Z,978.17
2016-11-21T09:04:49.496Z,978.16
2016-11-21T09:05:49.495Z,978.18
2016-11-21T09:06:49.491Z,978.18
2016-11-21T09:07:49.489Z,978.18
2016-11-21T09:08:49.491Z,978.19
2016-11-21T09:09:49.987Z,978.2
2016-11-21T09:10:49.481Z,978.18
2016-11-21T09:11:49.478Z,978.15
2016-11-21T09:12:49.477Z,978.15
2016-11-21T09:13:49.474Z,978.14
2016-11-21T09:14:49.471Z,978.12
2016-11-21T09:15:49.468Z,978.1
2016-11-21T09:16:49.466Z,978.09
2016-11-21T09:17:49.465Z,978.08
2016-11-21T09:18:49.461Z,978.08
2016-11-21T09:19:49.459Z,978.1
2016-11-21T09:20:49.456Z,978.07
2016-11-21T09:21:49.454Z,978.1
2016-11-21T09:22:49.450Z,978.1
2016-11-21T09:23:49.448Z,978.09
2016-11-21T09:24:49.446Z,978.09
2016-11-21T09:25:49.444Z,978.05
2016-11-21T09:26:49.441Z,978.03
2016-11-21T09:27:49.438Z,978.05
2016-11-21T09:28:49.435Z,978.08
2016-11-21T09:29:49.434Z,978.06
2016-11-21T09:30:49.430Z,978.11
2016-11-21T09:31:49.428Z,978.07
2016-11-21T09:32:49.426Z,978.06
2016-11-21T09:33:49.423Z,978.08
2016-11-21T09:34:49.420Z,978.03
2016-11-21T09:35:49.420Z,978.06
2016-11-21T09:36:49.415Z,978.09
2016-11-21T09:37:49.413Z,978.04
2016-11-21T09:38:49.411Z,978.01
2016-11-21T09:39:49.416Z,978.06
2016-11-21T09:40:49.406Z,978.04
2016-11-21T09:41:49.402Z,977.95
2016-11-21T09:42:49.399Z,978.01
2016-11-21T09:43:49.404Z,977.96
2016-11-21T09:44:49.395Z,977.89
2016-11-21T09:45:49.391Z,977.86
2016-11-21T09:46:49.390Z,977.84
2016-11-21T09:47:49.387Z,977.82
2016-11-21T09:48:49.384Z,977.83
2016-11-21T09:49:49.382Z,977.82
2016-11-21T09:50:49.380Z,977.8
2016-11-21T09:51:49.377Z,977.81
2016-11-21T09:52:49.374Z,977.75
2016-11-21T09:53:49.372Z,977.68
2016-11-21T09:54:49.370Z,977.62
2016-11-21T09:55:49.368Z,977.57
2016-11-21T09:56:49.365Z,977.56
2016-11-21T09:57:49.363Z,977.59
2016-11-21T09:58:49.361Z,977.58
2016-11-21T09:59:49.358Z,977.58
2016-11-21T10:00:49.357Z,977.58
2016-11-21T10:01:49.354Z,977.54
2016-11-21T10:02:49.355Z,977.53
2016-11-21T10:03:49.350Z,977.52
2016-11-21T10:04:49.349Z,977.49
2016-11-21T10:05:49.357Z,977.55
2016-11-21T10:06:49.345Z,977.48
2016-11-21T10:07:49.343Z,977.48
2016-11-21T10:08:49.341Z,977.42
2016-11-21T10:09:49.339Z,977.45
2016-11-21T10:10:49.337Z,977.42
2016-11-21T10:11:49.335Z,977.44
2016-11-21T10:12:49.334Z,977.48
2016-11-21T10:13:49.332Z,977.53
2016-11-21T10:14:49.330Z,977.5
2016-11-21T10:15:49.329Z,977.49
2016-11-21T10:16:49.328Z,977.51
2016-11-21T10:17:49.325Z,977.48
2016-11-21T10:18:49.325Z,977.42
2016-11-21T10:19:49.323Z,977.44
2016-11-21T10:20:49.321Z,977.43
2016-11-21T10:21:49.318Z,977.45
2016-11-21T10:22:49.317Z,977.46
2016-11-21T10:23:49.317Z,977.38
2016-11-21T10:24:49.318Z,977.37
2016-11-21T10:25:49.313Z,977.4
2016-11-21T10:26:49.312Z,977.41
2016-11-21T10:27:49.318Z,977.4
2016-11-21T10:28:49.331Z,977.41
2016-11-21T10:29:49.307Z,977.37
2016-11-21T10:30:49.314Z,977.34
2016-11-21T10:31:49.305Z,977.37
2016-11-21T10:32:49.304Z,977.35
2016-11-21T10:33:49.301Z,977.3
2016-11-21T10:34:49.304Z,977.27
2016-11-21T10:35:49.299Z,977.29
2016-11-21T10:36:49.298Z,977.23
2016-11-21T10:37:49.296Z,977.26
2016-11-21T10:38:49.296Z,977.24
2016-11-21T10:39:49.294Z,977.32
2016-11-21T10:40:49.294Z,977.26
2016-11-21T10:41:49.291Z,977.23
2016-11-21T10:42:49.290Z,977.27
2016-11-21T10:43:49.288Z,977.24
2016-11-21T10:44:49.286Z,977.21
2016-11-21T10:45:49.287Z,977.21
2016-11-21T10:46:49.285Z,977.17
2016-11-21T10:47:49.283Z,977.1
2016-11-21T10:48:49.282Z,977.06
2016-11-21T10:49:49.282Z,977.07
2016-11-21T10:50:49.279Z,977.12
2016-11-21T10:51:49.279Z,977.12
2016-11-21T10:52:49.277Z,977.13
2016-11-21T10:53:49.275Z,977.13
2016-11-21T10:54:49.273Z,977.11
2016-11-21T10:55:49.272Z,977.17
2016-11-21T10:56:49.273Z,977.18
2016-11-21T10:57:49.269Z,977.13
2016-11-21T10:58:49.269Z,977.16
2016-11-21T10:59:49.266Z,977.12
2016-11-21T11:00:49.265Z,977.17
2016-11-21T11:01:49.264Z,977.17
2016-11-21T11:02:49.264Z,977.11
2016-11-21T11:03:49.260Z,977.1
2016-11-21T11:04:49.260Z,977.13
2016-11-21T11:05:49.259Z,977.13
2016-11-21T11:06:49.255Z,977.1
2016-11-21T11:07:49.254Z,977.12
2016-11-21T11:08:49.253Z,977.17
2016-11-21T11:09:49.251Z,977.2
2016-11-21T11:10:49.250Z,977.24
2016-11-21T11:11:49.248Z,977.21
2016-11-21T11:12:49.248Z,977.19
2016-11-21T11:13:49.244Z,977.17
2016-11-21T11:14:49.249Z,977.16
2016-11-21T11:15:49.246Z,977.15
2016-11-21T11:16:49.240Z,977.16
2016-11-21T11:17:49.239Z,977.13
2016-11-21T11:18:49.239Z,977.13
2016-11-21T11:19:49.236Z,977.06
2016-11-21T11:20:49.234Z,977.09
2016-11-21T11:21:49.248Z,977.1
2016-11-21T11:22:49.232Z,977.07
2016-11-21T11:23:49.230Z,977.05
2016-11-21T11:24:49.230Z,977.03
2016-11-21T11:25:49.229Z,977.05
2016-11-21T11:26:49.228Z,976.97
2016-11-21T11:27:49.226Z,977.07
2016-11-21T11:28:49.225Z,977.06
2016-11-21T11:29:49.230Z,977.07
2016-11-21T11:30:49.221Z,977.03
2016-11-21T11:31:49.222Z,977.03
2016-11-21T11:32:49.219Z,977.02
2016-11-21T11:33:49.218Z,977.03
2016-11-21T11:34:49.217Z,977.01
2016-11-21T11:35:49.215Z,977.01
2016-11-21T11:36:49.215Z,976.93
2016-11-21T11:37:49.214Z,976.9
2016-11-21T11:38:49.212Z,976.92
2016-11-21T11:39:49.217Z,976.95
2016-11-21T11:40:49.210Z,977
2016-11-21T11:41:49.208Z,976.98
2016-11-21T11:42:49.207Z,977
2016-11-21T11:43:49.210Z,977.07
2016-11-21T11:44:49.206Z,977.02
2016-11-21T11:45:49.204Z,977.02
2016-11-21T11:46:49.203Z,977.04
2016-11-21T11:47:49.203Z,977.06
2016-11-21T11:48:49.202Z,977.1
2016-11-21T11:49:49.199Z,977.09
2016-11-21T11:50:49.198Z,977.09
2016-11-21T11:51:49.199Z,977.09
2016-11-21T11:52:49.196Z,977.07
2016-11-21T11:53:49.196Z,977.09
2016-11-21T11:54:49.194Z,977.07
2016-11-21T11:55:49.195Z,977.07
2016-11-21T11:56:49.191Z,977.06
2016-11-21T11:57:49.190Z,977.04
2016-11-21T11:58:49.189Z,977.03
2016-11-21T11:59:49.188Z,977.03
2016-11-21T12:00:49.187Z,976.99
2016-11-21T12:01:49.187Z,976.97
2016-11-21T12:02:49.184Z,976.91
2016-11-21T12:03:49.183Z,976.87
2016-11-21T12:04:49.182Z,976.92
2016-11-21T12:05:49.180Z,976.93
2016-11-21T12:06:49.179Z,976.91
2016-11-21T12:07:49.177Z,976.9
2016-11-21T12:08:49.176Z,976.93
2016-11-21T12:09:49.175Z,976.87
2016-11-21T12:10:49.174Z,976.85
2016-11-21T12:11:49.172Z,976.83
2016-11-21T12:12:49.171Z,976.82
2016-11-21T12:13:49.170Z,976.81
2016-11-21T12:14:49.169Z,976.88
2016-11-21T12:15:49.168Z,976.85
2016-11-21T12:16:49.167Z,976.85
2016-11-21T12:17:49.167Z,976.8
2016-11-21T12:18:49.164Z,976.85
2016-11-21T12:19:49.165Z,976.85
2016-11-21T12:20:49.161Z,976.85
2016-11-21T12:21:49.161Z,976.86
2016-11-21T12:22:49.160Z,976.88
2016-11-21T12:23:49.160Z,976.9
2016-11-21T12:24:49.158Z,976.93
2016-11-21T12:25:49.156Z,976.88
2016-11-21T12:26:49.156Z,976.85
2016-11-21T12:27:49.154Z,976.89
2016-11-21T12:28:49.157Z,976.9
2016-11-21T12:29:49.159Z,976.94
2016-11-21T12:30:49.156Z,976.92
2016-11-21T12:31:49.157Z,976.94